sensor_id;sensor_type;location;lat;lon;timestamp;P1;durP1;ratioP1;P2;durP2;ratioP2
23242;SDS011;11790;49.578;11.214;2024-02-14T00:03:55;23.95;;;12.15;;
23242;SDS011;11790;49.578;11.214;2024-02-14T00:08:55;17.20;;;10.80;;
23242;SDS011;11790;49.578;11.214;2024-02-14T00:13:55;17.77;;;10.18;;
23242;SDS011;11790;49.578;11.214;2024-02-14T00:18:56;21.15;;;10.77;;
23242;SDS011;11790;49.578;11.214;2024-02-14T00:23:57;21.13;;;10.93;;
23242;SDS011;11790;49.578;11.214;2024-02-14T00:28:58;19.15;;;9.38;;
23242;SDS011;11790;49.578;11.214;2024-02-14T00:33:58;19.20;;;10.68;;
23242;SDS011;11790;49.578;11.214;2024-02-14T00:38:58;16.00;;;9.95;;
23242;SDS011;11790;49.578;11.214;2024-02-14T00:43:58;14.85;;;9.68;;
23242;SDS011;11790;49.578;11.214;2024-02-14T00:48:58;17.92;;;10.25;;
23242;SDS011;11790;49.578;11.214;2024-02-14T00:53:59;16.50;;;10.07;;
23242;SDS011;11790;49.578;11.214;2024-02-14T00:58:59;14.73;;;9.70;;
23242;SDS011;11790;49.578;11.214;2024-02-14T01:04:00;17.58;;;9.57;;
23242;SDS011;11790;49.578;11.214;2024-02-14T01:09:00;15.18;;;9.30;;
23242;SDS011;11790;49.578;11.214;2024-02-14T01:14:00;17.75;;;9.15;;
23242;SDS011;11790;49.578;11.214;2024-02-14T01:19:01;15.15;;;9.15;;
23242;SDS011;11790;49.578;11.214;2024-02-14T01:24:02;13.82;;;9.38;;
23242;SDS011;11790;49.578;11.214;2024-02-14T01:29:02;14.85;;;8.63;;
23242;SDS011;11790;49.578;11.214;2024-02-14T01:34:02;17.35;;;8.80;;
23242;SDS011;11790;49.578;11.214;2024-02-14T01:39:02;15.27;;;8.48;;
23242;SDS011;11790;49.578;11.214;2024-02-14T01:44:03;18.58;;;9.43;;
23242;SDS011;11790;49.578;11.214;2024-02-14T01:49:03;13.65;;;8.63;;
23242;SDS011;11790;49.578;11.214;2024-02-14T01:54:03;16.13;;;7.15;;
23242;SDS011;11790;49.578;11.214;2024-02-14T01:59:03;14.60;;;8.65;;
23242;SDS011;11790;49.578;11.214;2024-02-14T02:04:05;13.75;;;8.63;;
23242;SDS011;11790;49.578;11.214;2024-02-14T02:09:06;16.60;;;9.23;;
23242;SDS011;11790;49.578;11.214;2024-02-14T02:14:07;12.82;;;8.43;;
23242;SDS011;11790;49.578;11.214;2024-02-14T02:19:08;13.70;;;8.60;;
23242;SDS011;11790;49.578;11.214;2024-02-14T02:24:09;13.15;;;8.25;;
23242;SDS011;11790;49.578;11.214;2024-02-14T02:29:09;16.02;;;8.00;;
23242;SDS011;11790;49.578;11.214;2024-02-14T02:34:09;17.15;;;9.20;;
23242;SDS011;11790;49.578;11.214;2024-02-14T02:39:11;16.33;;;7.65;;
23242;SDS011;11790;49.578;11.214;2024-02-14T02:44:11;14.85;;;8.52;;
23242;SDS011;11790;49.578;11.214;2024-02-14T02:49:11;13.73;;;8.55;;
23242;SDS011;11790;49.578;11.214;2024-02-14T02:54:13;14.98;;;9.00;;
23242;SDS011;11790;49.578;11.214;2024-02-14T02:59:14;15.20;;;8.43;;
23242;SDS011;11790;49.578;11.214;2024-02-14T03:04:16;14.27;;;8.43;;
23242;SDS011;11790;49.578;11.214;2024-02-14T03:09:17;16.38;;;9.02;;
23242;SDS011;11790;49.578;11.214;2024-02-14T03:14:17;15.38;;;9.10;;
23242;SDS011;11790;49.578;11.214;2024-02-14T03:19:18;15.27;;;8.40;;
23242;SDS011;11790;49.578;11.214;2024-02-14T03:24:18;13.95;;;7.53;;
23242;SDS011;11790;49.578;11.214;2024-02-14T03:29:18;15.07;;;8.48;;
23242;SDS011;11790;49.578;11.214;2024-02-14T03:34:19;15.90;;;8.88;;
23242;SDS011;11790;49.578;11.214;2024-02-14T03:39:19;11.25;;;7.28;;
23242;SDS011;11790;49.578;11.214;2024-02-14T03:44:20;11.93;;;8.10;;
23242;SDS011;11790;49.578;11.214;2024-02-14T03:49:20;13.88;;;7.53;;
23242;SDS011;11790;49.578;11.214;2024-02-14T03:54:20;12.48;;;8.05;;
23242;SDS011;11790;49.578;11.214;2024-02-14T03:59:21;11.98;;;7.35;;
23242;SDS011;11790;49.578;11.214;2024-02-14T04:04:24;13.93;;;7.88;;
23242;SDS011;11790;49.578;11.214;2024-02-14T04:09:24;12.52;;;7.50;;
23242;SDS011;11790;49.578;11.214;2024-02-14T04:14:24;11.85;;;6.95;;
23242;SDS011;11790;49.578;11.214;2024-02-14T04:19:25;12.30;;;7.80;;
23242;SDS011;11790;49.578;11.214;2024-02-14T04:24:25;14.80;;;7.63;;
23242;SDS011;11790;49.578;11.214;2024-02-14T04:29:25;13.65;;;7.60;;
23242;SDS011;11790;49.578;11.214;2024-02-14T04:34:28;13.82;;;7.88;;
23242;SDS011;11790;49.578;11.214;2024-02-14T04:39:29;16.15;;;7.45;;
23242;SDS011;11790;49.578;11.214;2024-02-14T04:44:30;12.45;;;7.78;;
23242;SDS011;11790;49.578;11.214;2024-02-14T04:49:31;13.43;;;7.60;;
23242;SDS011;11790;49.578;11.214;2024-02-14T04:54:31;11.93;;;7.07;;
23242;SDS011;11790;49.578;11.214;2024-02-14T04:59:31;11.70;;;7.50;;
23242;SDS011;11790;49.578;11.214;2024-02-14T05:04:32;12.43;;;7.13;;
23242;SDS011;11790;49.578;11.214;2024-02-14T05:09:32;13.67;;;7.77;;
23242;SDS011;11790;49.578;11.214;2024-02-14T05:14:32;10.50;;;7.13;;
23242;SDS011;11790;49.578;11.214;2024-02-14T05:19:32;13.80;;;7.45;;
23242;SDS011;11790;49.578;11.214;2024-02-14T05:24:32;12.90;;;7.50;;
23242;SDS011;11790;49.578;11.214;2024-02-14T05:29:33;13.43;;;8.13;;
23242;SDS011;11790;49.578;11.214;2024-02-14T05:34:33;12.85;;;8.85;;
23242;SDS011;11790;49.578;11.214;2024-02-14T05:39:33;15.77;;;8.88;;
23242;SDS011;11790;49.578;11.214;2024-02-14T05:44:34;14.52;;;8.43;;
23242;SDS011;11790;49.578;11.214;2024-02-14T05:49:34;11.43;;;7.50;;
23242;SDS011;11790;49.578;11.214;2024-02-14T05:54:34;17.38;;;10.18;;
23242;SDS011;11790;49.578;11.214;2024-02-14T05:59:34;16.35;;;9.73;;
23242;SDS011;11790;49.578;11.214;2024-02-14T06:04:35;15.52;;;9.63;;
23242;SDS011;11790;49.578;11.214;2024-02-14T06:09:35;20.02;;;9.30;;
23242;SDS011;11790;49.578;11.214;2024-02-14T06:14:36;14.32;;;8.55;;
23242;SDS011;11790;49.578;11.214;2024-02-14T06:19:36;19.40;;;8.53;;
23242;SDS011;11790;49.578;11.214;2024-02-14T06:24:39;13.63;;;7.93;;
23242;SDS011;11790;49.578;11.214;2024-02-14T06:29:41;12.25;;;8.13;;
23242;SDS011;11790;49.578;11.214;2024-02-14T06:34:41;18.05;;;8.75;;
23242;SDS011;11790;49.578;11.214;2024-02-14T06:39:41;12.98;;;7.93;;
23242;SDS011;11790;49.578;11.214;2024-02-14T06:44:42;12.88;;;7.80;;
23242;SDS011;11790;49.578;11.214;2024-02-14T06:49:42;16.02;;;8.07;;
23242;SDS011;11790;49.578;11.214;2024-02-14T06:54:42;13.25;;;7.68;;
23242;SDS011;11790;49.578;11.214;2024-02-14T06:59:42;16.88;;;7.53;;
23242;SDS011;11790;49.578;11.214;2024-02-14T07:04:42;15.23;;;7.15;;
23242;SDS011;11790;49.578;11.214;2024-02-14T07:09:43;16.42;;;7.75;;
23242;SDS011;11790;49.578;11.214;2024-02-14T07:14:43;11.43;;;6.70;;
23242;SDS011;11790;49.578;11.214;2024-02-14T07:19:43;14.77;;;7.43;;
23242;SDS011;11790;49.578;11.214;2024-02-14T07:24:47;12.77;;;7.82;;
23242;SDS011;11790;49.578;11.214;2024-02-14T07:29:48;11.95;;;6.95;;
23242;SDS011;11790;49.578;11.214;2024-02-14T07:34:48;13.50;;;7.70;;
23242;SDS011;11790;49.578;11.214;2024-02-14T07:39:49;10.15;;;6.75;;
23242;SDS011;11790;49.578;11.214;2024-02-14T07:44:49;13.48;;;7.00;;
23242;SDS011;11790;49.578;11.214;2024-02-14T07:49:49;11.18;;;7.10;;
23242;SDS011;11790;49.578;11.214;2024-02-14T07:54:53;11.38;;;7.65;;
23242;SDS011;11790;49.578;11.214;2024-02-14T07:59:56;12.38;;;7.90;;
23242;SDS011;11790;49.578;11.214;2024-02-14T08:04:56;17.05;;;8.18;;
23242;SDS011;11790;49.578;11.214;2024-02-14T08:09:57;11.73;;;7.57;;
23242;SDS011;11790;49.578;11.214;2024-02-14T08:14:57;14.48;;;7.63;;
23242;SDS011;11790;49.578;11.214;2024-02-14T08:19:57;11.35;;;6.80;;
23242;SDS011;11790;49.578;11.214;2024-02-14T08:24:58;11.52;;;6.18;;
23242;SDS011;11790;49.578;11.214;2024-02-14T08:29:58;13.55;;;6.07;;
23242;SDS011;11790;49.578;11.214;2024-02-14T08:34:58;12.82;;;5.82;;
23242;SDS011;11790;49.578;11.214;2024-02-14T08:39:58;12.98;;;6.57;;
23242;SDS011;11790;49.578;11.214;2024-02-14T08:44:58;14.30;;;6.72;;
23242;SDS011;11790;49.578;11.214;2024-02-14T08:49:58;9.15;;;5.47;;
23242;SDS011;11790;49.578;11.214;2024-02-14T08:54:59;11.95;;;5.75;;
23242;SDS011;11790;49.578;11.214;2024-02-14T08:59:59;17.73;;;6.20;;
23242;SDS011;11790;49.578;11.214;2024-02-14T09:05:00;13.07;;;5.13;;
23242;SDS011;11790;49.578;11.214;2024-02-14T09:10:01;12.57;;;4.82;;
23242;SDS011;11790;49.578;11.214;2024-02-14T09:15:01;10.10;;;5.97;;
23242;SDS011;11790;49.578;11.214;2024-02-14T09:20:05;12.30;;;6.07;;
23242;SDS011;11790;49.578;11.214;2024-02-14T09:25:06;15.05;;;6.78;;
23242;SDS011;11790;49.578;11.214;2024-02-14T09:30:08;10.82;;;6.32;;
23242;SDS011;11790;49.578;11.214;2024-02-14T09:35:09;14.17;;;6.83;;
23242;SDS011;11790;49.578;11.214;2024-02-14T09:40:09;16.02;;;7.57;;
23242;SDS011;11790;49.578;11.214;2024-02-14T09:45:12;25.05;;;11.93;;
23242;SDS011;11790;49.578;11.214;2024-02-14T09:50:13;16.02;;;5.70;;
23242;SDS011;11790;49.578;11.214;2024-02-14T09:55:14;15.40;;;8.30;;
23242;SDS011;11790;49.578;11.214;2024-02-14T10:00:14;9.73;;;5.70;;
23242;SDS011;11790;49.578;11.214;2024-02-14T10:05:15;11.25;;;5.07;;
23242;SDS011;11790;49.578;11.214;2024-02-14T10:10:15;8.10;;;4.72;;
23242;SDS011;11790;49.578;11.214;2024-02-14T10:15:15;12.63;;;5.30;;
23242;SDS011;11790;49.578;11.214;2024-02-14T10:20:17;8.55;;;4.75;;
23242;SDS011;11790;49.578;11.214;2024-02-14T10:25:17;10.45;;;4.85;;
23242;SDS011;11790;49.578;11.214;2024-02-14T10:30:19;11.02;;;5.03;;
23242;SDS011;11790;49.578;11.214;2024-02-14T10:35:19;8.95;;;4.13;;
23242;SDS011;11790;49.578;11.214;2024-02-14T10:40:20;9.25;;;4.28;;
23242;SDS011;11790;49.578;11.214;2024-02-14T10:45:20;7.40;;;3.72;;
23242;SDS011;11790;49.578;11.214;2024-02-14T10:50:21;8.77;;;3.65;;
23242;SDS011;11790;49.578;11.214;2024-02-14T10:55:22;8.25;;;3.28;;
23242;SDS011;11790;49.578;11.214;2024-02-14T11:00:26;7.57;;;3.60;;
23242;SDS011;11790;49.578;11.214;2024-02-14T11:05:27;7.30;;;3.65;;
23242;SDS011;11790;49.578;11.214;2024-02-14T11:10:27;9.05;;;3.63;;
23242;SDS011;11790;49.578;11.214;2024-02-14T11:15:27;8.00;;;3.40;;
23242;SDS011;11790;49.578;11.214;2024-02-14T11:20:31;8.68;;;4.00;;
23242;SDS011;11790;49.578;11.214;2024-02-14T11:25:33;8.15;;;3.70;;
23242;SDS011;11790;49.578;11.214;2024-02-14T11:30:36;11.35;;;3.88;;
23242;SDS011;11790;49.578;11.214;2024-02-14T11:35:38;9.38;;;3.50;;
23242;SDS011;11790;49.578;11.214;2024-02-14T11:40:39;7.70;;;3.58;;
23242;SDS011;11790;49.578;11.214;2024-02-14T11:45:40;9.63;;;3.60;;
23242;SDS011;11790;49.578;11.214;2024-02-14T11:50:43;5.97;;;3.20;;
23242;SDS011;11790;49.578;11.214;2024-02-14T11:55:43;10.30;;;3.53;;
23242;SDS011;11790;49.578;11.214;2024-02-14T12:00:44;6.82;;;2.95;;
23242;SDS011;11790;49.578;11.214;2024-02-14T12:05:45;7.55;;;3.47;;
23242;SDS011;11790;49.578;11.214;2024-02-14T12:10:47;8.55;;;4.20;;
23242;SDS011;11790;49.578;11.214;2024-02-14T12:15:50;5.32;;;2.80;;
23242;SDS011;11790;49.578;11.214;2024-02-14T12:20:50;5.97;;;2.50;;
23242;SDS011;11790;49.578;11.214;2024-02-14T12:25:51;4.53;;;2.63;;
23242;SDS011;11790;49.578;11.214;2024-02-14T12:30:51;2.97;;;2.30;;
23242;SDS011;11790;49.578;11.214;2024-02-14T12:35:56;7.88;;;2.47;;
23242;SDS011;11790;49.578;11.214;2024-02-14T12:40:58;6.07;;;2.20;;
23242;SDS011;11790;49.578;11.214;2024-02-14T12:45:58;6.60;;;2.75;;
23242;SDS011;11790;49.578;11.214;2024-02-14T12:50:58;6.57;;;2.78;;
23242;SDS011;11790;49.578;11.214;2024-02-14T12:55:59;4.75;;;2.28;;
23242;SDS011;11790;49.578;11.214;2024-02-14T13:00:59;6.28;;;1.98;;
23242;SDS011;11790;49.578;11.214;2024-02-14T13:06:00;5.65;;;2.00;;
23242;SDS011;11790;49.578;11.214;2024-02-14T13:11:01;2.85;;;1.27;;
23242;SDS011;11790;49.578;11.214;2024-02-14T13:16:01;5.35;;;1.80;;
23242;SDS011;11790;49.578;11.214;2024-02-14T13:21:01;2.58;;;1.55;;
23242;SDS011;11790;49.578;11.214;2024-02-14T13:26:02;3.50;;;2.03;;
23242;SDS011;11790;49.578;11.214;2024-02-14T13:31:03;8.98;;;2.45;;
23242;SDS011;11790;49.578;11.214;2024-02-14T13:36:03;6.77;;;2.43;;
23242;SDS011;11790;49.578;11.214;2024-02-14T13:41:04;5.75;;;2.30;;
23242;SDS011;11790;49.578;11.214;2024-02-14T13:46:04;5.88;;;2.30;;
23242;SDS011;11790;49.578;11.214;2024-02-14T13:51:05;6.93;;;2.92;;
23242;SDS011;11790;49.578;11.214;2024-02-14T13:56:05;3.97;;;2.13;;
23242;SDS011;11790;49.578;11.214;2024-02-14T14:01:06;9.45;;;2.40;;
23242;SDS011;11790;49.578;11.214;2024-02-14T14:06:07;3.50;;;1.70;;
23242;SDS011;11790;49.578;11.214;2024-02-14T14:11:10;4.00;;;1.90;;
23242;SDS011;11790;49.578;11.214;2024-02-14T14:16:10;3.57;;;1.87;;
23242;SDS011;11790;49.578;11.214;2024-02-14T14:21:11;5.57;;;2.20;;
23242;SDS011;11790;49.578;11.214;2024-02-14T14:26:11;4.63;;;2.22;;
23242;SDS011;11790;49.578;11.214;2024-02-14T14:31:13;3.58;;;2.30;;
23242;SDS011;11790;49.578;11.214;2024-02-14T14:36:13;6.13;;;2.20;;
23242;SDS011;11790;49.578;11.214;2024-02-14T14:41:13;7.63;;;2.13;;
23242;SDS011;11790;49.578;11.214;2024-02-14T14:46:14;4.82;;;1.88;;
23242;SDS011;11790;49.578;11.214;2024-02-14T14:51:14;5.03;;;1.93;;
23242;SDS011;11790;49.578;11.214;2024-02-14T14:56:15;5.57;;;2.70;;
23242;SDS011;11790;49.578;11.214;2024-02-14T15:01:15;7.70;;;3.72;;
23242;SDS011;11790;49.578;11.214;2024-02-14T15:06:15;5.50;;;2.67;;
23242;SDS011;11790;49.578;11.214;2024-02-14T15:11:16;2.92;;;1.95;;
23242;SDS011;11790;49.578;11.214;2024-02-14T15:16:17;3.88;;;2.20;;
23242;SDS011;11790;49.578;11.214;2024-02-14T15:21:18;4.37;;;2.20;;
23242;SDS011;11790;49.578;11.214;2024-02-14T15:26:18;6.85;;;2.65;;
23242;SDS011;11790;49.578;11.214;2024-02-14T15:31:18;4.35;;;2.47;;
23242;SDS011;11790;49.578;11.214;2024-02-14T15:36:37;12.27;;;2.50;;
23242;SDS011;11790;49.578;11.214;2024-02-14T15:41:37;4.35;;;2.25;;
23242;SDS011;11790;49.578;11.214;2024-02-14T15:46:37;3.95;;;2.50;;
23242;SDS011;11790;49.578;11.214;2024-02-14T15:51:38;6.30;;;3.75;;
23242;SDS011;11790;49.578;11.214;2024-02-14T15:56:38;9.77;;;4.38;;
23242;SDS011;11790;49.578;11.214;2024-02-14T16:01:38;6.55;;;3.60;;
23242;SDS011;11790;49.578;11.214;2024-02-14T16:06:39;10.73;;;5.22;;
23242;SDS011;11790;49.578;11.214;2024-02-14T16:11:39;16.38;;;7.28;;
23242;SDS011;11790;49.578;11.214;2024-02-14T16:16:40;16.60;;;6.43;;
23242;SDS011;11790;49.578;11.214;2024-02-14T16:21:40;11.68;;;6.57;;
23242;SDS011;11790;49.578;11.214;2024-02-14T16:26:41;12.20;;;6.63;;
23242;SDS011;11790;49.578;11.214;2024-02-14T16:31:42;10.60;;;6.55;;
23242;SDS011;11790;49.578;11.214;2024-02-14T16:36:42;10.50;;;6.20;;
23242;SDS011;11790;49.578;11.214;2024-02-14T16:41:42;10.55;;;5.28;;
23242;SDS011;11790;49.578;11.214;2024-02-14T16:46:43;8.95;;;5.30;;
23242;SDS011;11790;49.578;11.214;2024-02-14T16:51:43;10.57;;;5.32;;
23242;SDS011;11790;49.578;11.214;2024-02-14T16:56:43;12.40;;;6.73;;
23242;SDS011;11790;49.578;11.214;2024-02-14T17:01:43;10.88;;;6.75;;
23242;SDS011;11790;49.578;11.214;2024-02-14T17:06:44;16.55;;;8.23;;
23242;SDS011;11790;49.578;11.214;2024-02-14T17:11:44;14.40;;;7.80;;
23242;SDS011;11790;49.578;11.214;2024-02-14T17:16:44;13.98;;;8.35;;
23242;SDS011;11790;49.578;11.214;2024-02-14T17:21:46;15.73;;;8.43;;
23242;SDS011;11790;49.578;11.214;2024-02-14T17:26:46;16.75;;;9.20;;
23242;SDS011;11790;49.578;11.214;2024-02-14T17:31:46;16.88;;;8.10;;
23242;SDS011;11790;49.578;11.214;2024-02-14T17:36:48;16.00;;;8.65;;
23242;SDS011;11790;49.578;11.214;2024-02-14T17:41:49;11.55;;;6.82;;
23242;SDS011;11790;49.578;11.214;2024-02-14T17:46:49;13.27;;;7.63;;
23242;SDS011;11790;49.578;11.214;2024-02-14T17:51:49;11.23;;;7.22;;
23242;SDS011;11790;49.578;11.214;2024-02-14T17:56:51;10.65;;;6.60;;
23242;SDS011;11790;49.578;11.214;2024-02-14T18:01:52;12.27;;;6.35;;
23242;SDS011;11790;49.578;11.214;2024-02-14T18:06:52;11.45;;;6.68;;
23242;SDS011;11790;49.578;11.214;2024-02-14T18:11:52;9.73;;;6.70;;
23242;SDS011;11790;49.578;11.214;2024-02-14T18:16:52;19.33;;;9.03;;
23242;SDS011;11790;49.578;11.214;2024-02-14T18:21:52;24.75;;;12.85;;
23242;SDS011;11790;49.578;11.214;2024-02-14T18:26:53;27.75;;;12.90;;
23242;SDS011;11790;49.578;11.214;2024-02-14T18:31:53;32.03;;;16.15;;
23242;SDS011;11790;49.578;11.214;2024-02-14T18:36:54;35.25;;;17.23;;
23242;SDS011;11790;49.578;11.214;2024-02-14T18:41:55;25.92;;;13.52;;
23242;SDS011;11790;49.578;11.214;2024-02-14T18:46:55;24.90;;;12.20;;
23242;SDS011;11790;49.578;11.214;2024-02-14T18:51:55;19.65;;;10.35;;
23242;SDS011;11790;49.578;11.214;2024-02-14T18:56:55;17.10;;;9.60;;
23242;SDS011;11790;49.578;11.214;2024-02-14T19:01:56;15.57;;;9.15;;
23242;SDS011;11790;49.578;11.214;2024-02-14T19:06:56;14.55;;;8.60;;
23242;SDS011;11790;49.578;11.214;2024-02-14T19:11:56;16.98;;;8.70;;
23242;SDS011;11790;49.578;11.214;2024-02-14T19:16:56;14.38;;;8.15;;
23242;SDS011;11790;49.578;11.214;2024-02-14T19:21:57;14.93;;;8.30;;
23242;SDS011;11790;49.578;11.214;2024-02-14T19:26:57;17.63;;;9.02;;
23242;SDS011;11790;49.578;11.214;2024-02-14T19:31:57;13.20;;;7.75;;
23242;SDS011;11790;49.578;11.214;2024-02-14T19:36:57;7.80;;;5.88;;
23242;SDS011;11790;49.578;11.214;2024-02-14T19:41:58;12.27;;;7.15;;
23242;SDS011;11790;49.578;11.214;2024-02-14T19:46:58;12.23;;;7.78;;
23242;SDS011;11790;49.578;11.214;2024-02-14T19:51:58;15.35;;;8.40;;
23242;SDS011;11790;49.578;11.214;2024-02-14T19:56:58;19.55;;;11.48;;
23242;SDS011;11790;49.578;11.214;2024-02-14T20:01:59;15.43;;;10.02;;
23242;SDS011;11790;49.578;11.214;2024-02-14T20:06:59;14.23;;;8.32;;
23242;SDS011;11790;49.578;11.214;2024-02-14T20:12:01;23.70;;;7.20;;
23242;SDS011;11790;49.578;11.214;2024-02-14T20:17:02;8.88;;;6.60;;
23242;SDS011;11790;49.578;11.214;2024-02-14T20:22:02;11.35;;;6.78;;
23242;SDS011;11790;49.578;11.214;2024-02-14T20:27:06;10.50;;;6.72;;
23242;SDS011;11790;49.578;11.214;2024-02-14T20:32:06;15.40;;;8.73;;
23242;SDS011;11790;49.578;11.214;2024-02-14T20:37:08;12.38;;;8.30;;
23242;SDS011;11790;49.578;11.214;2024-02-14T20:42:08;16.48;;;9.82;;
23242;SDS011;11790;49.578;11.214;2024-02-14T20:47:10;13.25;;;8.23;;
23242;SDS011;11790;49.578;11.214;2024-02-14T20:52:11;13.88;;;8.70;;
23242;SDS011;11790;49.578;11.214;2024-02-14T20:57:11;14.35;;;8.32;;
23242;SDS011;11790;49.578;11.214;2024-02-14T21:02:11;11.38;;;7.32;;
23242;SDS011;11790;49.578;11.214;2024-02-14T21:07:12;13.23;;;9.37;;
23242;SDS011;11790;49.578;11.214;2024-02-14T21:12:14;15.68;;;9.15;;
23242;SDS011;11790;49.578;11.214;2024-02-14T21:17:15;16.60;;;8.63;;
23242;SDS011;11790;49.578;11.214;2024-02-14T21:22:15;14.77;;;9.17;;
23242;SDS011;11790;49.578;11.214;2024-02-14T21:27:15;13.07;;;8.55;;
23242;SDS011;11790;49.578;11.214;2024-02-14T21:32:16;15.10;;;8.57;;
23242;SDS011;11790;49.578;11.214;2024-02-14T21:37:16;15.23;;;9.67;;
23242;SDS011;11790;49.578;11.214;2024-02-14T21:42:16;18.50;;;12.32;;
23242;SDS011;11790;49.578;11.214;2024-02-14T21:47:18;19.20;;;12.80;;
23242;SDS011;11790;49.578;11.214;2024-02-14T21:52:18;15.02;;;11.38;;
23242;SDS011;11790;49.578;11.214;2024-02-14T21:57:19;14.45;;;9.45;;
23242;SDS011;11790;49.578;11.214;2024-02-14T22:02:20;15.60;;;10.95;;
23242;SDS011;11790;49.578;11.214;2024-02-14T22:07:20;15.07;;;9.02;;
23242;SDS011;11790;49.578;11.214;2024-02-14T22:12:21;16.05;;;9.50;;
23242;SDS011;11790;49.578;11.214;2024-02-14T22:17:22;14.15;;;9.30;;
23242;SDS011;11790;49.578;11.214;2024-02-14T22:22:22;15.18;;;9.00;;
23242;SDS011;11790;49.578;11.214;2024-02-14T22:27:23;19.77;;;12.23;;
23242;SDS011;11790;49.578;11.214;2024-02-14T22:32:24;19.17;;;11.77;;
23242;SDS011;11790;49.578;11.214;2024-02-14T22:37:24;12.85;;;8.90;;
23242;SDS011;11790;49.578;11.214;2024-02-14T22:42:25;12.15;;;7.78;;
23242;SDS011;11790;49.578;11.214;2024-02-14T22:47:26;11.18;;;7.20;;
23242;SDS011;11790;49.578;11.214;2024-02-14T22:52:26;12.23;;;7.95;;
23242;SDS011;11790;49.578;11.214;2024-02-14T22:57:27;11.98;;;7.78;;
23242;SDS011;11790;49.578;11.214;2024-02-14T23:02:28;11.20;;;7.85;;
23242;SDS011;11790;49.578;11.214;2024-02-14T23:07:29;11.02;;;7.10;;
23242;SDS011;11790;49.578;11.214;2024-02-14T23:12:30;12.55;;;7.97;;
23242;SDS011;11790;49.578;11.214;2024-02-14T23:17:30;13.98;;;7.93;;
23242;SDS011;11790;49.578;11.214;2024-02-14T23:22:31;12.50;;;7.80;;
23242;SDS011;11790;49.578;11.214;2024-02-14T23:27:31;13.95;;;7.97;;
23242;SDS011;11790;49.578;11.214;2024-02-14T23:32:37;11.93;;;7.95;;
23242;SDS011;11790;49.578;11.214;2024-02-14T23:37:39;12.68;;;7.15;;
23242;SDS011;11790;49.578;11.214;2024-02-14T23:42:40;12.55;;;7.47;;
23242;SDS011;11790;49.578;11.214;2024-02-14T23:47:41;8.57;;;6.20;;
23242;SDS011;11790;49.578;11.214;2024-02-14T23:52:42;10.83;;;6.63;;
23242;SDS011;11790;49.578;11.214;2024-02-14T23:57:42;12.40;;;6.90;;
